Meath Environmental Platform

Observations for Trim Market St

Time AQI Temp °C Hum % Pres Pa CO μg/m³ H₂S μg/m³ NO μg/m³ NO₂ μg/m³ O₃ μg/m³ SO₂ μg/m³ PM1 μg/m³ PM2.5 μg/m³ PM10 μg/m³
Wednesday 19 August 2026
10:29 2 24.9 52 62,260 0.07 0 2.37 10.49 33.31 0 0 2.37 2.39
10:26 2 24.9 52 62,365 0.13 0 2.46 8.3 22.42 0 0.71 3.39 3.86
10:25 2 24.8 52 62,180 0.13 0 2.57 9.59 23.47 0 0 1.85 2.03
10:24 2 24.9 52 61,970 0.12 0 2.59 5.69 12.39 0 0 1.84 2.41
10:23 2 24.9 53 61,433 0.15 0 2.61 9.57 28.01 0 0 2.34 2.42
10:20 2 24.9 54 58,712 0.16 0 2.82 10.88 4.57 0 0.71 2.78 4.65
10:16 2 24.5 56 56,302 0.11 0 2.71 11.58 26.44 0 1.43 3.22 3.97
10:15 2 24.4 56 55,586 0.06 0 2.63 12.36 57.98 0 0 2.2 2.56
10:14 2 24.1 56 55,624 0 0 2.43 11.39 38.32 0 0 1.69 1.85
10:13 2 23.9 56 55,653 0 0 2.48 10.73 66.03 0 0 2.2 2.56
10:02 2 23.1 56 56,211 0 0 2.94 7.65 35.23 0 0 2.19 3.27
10:01 2 23.2 56 55,911 0 0 2.9 6.33 31.67 0 0 2.19 2.56
10:00 2 23.2 56 55,769 0 0 3.13 3.57 16.57 0 0 2.18 2.57
09:59 2 23.3 57 55,773 0 0 3.27 2.76 10.15 0 0 1.67 1.88
09:58 2 23.3 57 55,835 0.02 0 3.23 3.05 14.82 0 0.71 2.66 3.3
09:57 2 23.3 57 55,871 0.09 0 3.09 4.41 14 0 0 1.65 2.6
09:56 2 23.3 57 56,004 0.12 0 3.07 5.67 0.3 0 0 2.15 2.6
09:55 2 23.3 57 56,003 0.09 0 2.96 5.18 22.78 0 0 2.64 3.32
09:54 2 23.3 58 56,055 0.06 0 3.01 4.06 20.01 0 0 2.13 2.63
09:53 2 23.3 58 56,144 0.12 0 3.02 1.32 0 0 0 2.12 4.73